createdAt,value
2022-12-23T00:01:19.670Z,3.35
2022-12-23T00:03:49.998Z,2.78
2022-12-23T00:06:21.275Z,2.50
2022-12-23T00:08:58.621Z,2.22
2022-12-23T00:11:30.513Z,1.98
2022-12-23T00:14:19.948Z,2.42
2022-12-23T00:16:51.274Z,2.75
2022-12-23T00:19:21.412Z,2.42
2022-12-23T00:21:51.345Z,2.03
2022-12-23T00:24:23.857Z,2.45
2022-12-23T00:26:53.794Z,2.28
2022-12-23T00:29:23.707Z,2.08
2022-12-23T00:31:53.628Z,2.63
2022-12-23T00:34:23.572Z,2.83
2022-12-23T00:36:53.664Z,2.33
2022-12-23T00:39:38.661Z,2.55
2022-12-23T00:42:32.730Z,2.30
2022-12-23T00:45:15.960Z,2.63
2022-12-23T00:47:59.096Z,2.17
2022-12-23T00:50:29.978Z,2.30
2022-12-23T00:53:00.353Z,1.85
2022-12-23T00:55:33.026Z,3.22
2022-12-23T00:58:02.998Z,1.85
2022-12-23T01:00:45.520Z,2.47
2022-12-23T01:03:29.344Z,3.22
2022-12-23T01:06:01.011Z,2.35
2022-12-23T01:08:31.440Z,2.83
2022-12-23T01:11:05.579Z,3.00
2022-12-23T01:13:35.979Z,2.95
2022-12-23T01:16:11.790Z,2.67
2022-12-23T01:18:45.220Z,2.60
2022-12-23T01:21:15.431Z,2.42
2022-12-23T01:23:45.421Z,2.42
2022-12-23T01:26:17.959Z,2.42
2022-12-23T01:28:47.883Z,2.78
2022-12-23T01:31:17.862Z,3.45
2022-12-23T01:33:47.876Z,1.92
2022-12-23T01:36:17.886Z,2.05
2022-12-23T01:38:47.967Z,3.33
2022-12-23T01:41:37.327Z,3.10
2022-12-23T01:44:22.143Z,2.85
2022-12-23T01:46:52.137Z,2.35
2022-12-23T01:49:22.197Z,2.80
2022-12-23T01:51:52.136Z,2.58
2022-12-23T01:54:22.113Z,2.42
2022-12-23T01:56:54.615Z,2.30
2022-12-23T01:59:36.813Z,2.30
2022-12-23T02:02:19.595Z,2.13
2022-12-23T02:04:50.320Z,2.53
2022-12-23T02:07:33.776Z,2.95
2022-12-23T02:10:04.162Z,2.70
2022-12-23T02:12:49.208Z,2.22
2022-12-23T02:15:47.919Z,2.50
2022-12-23T02:18:43.184Z,2.53
2022-12-23T02:21:25.546Z,2.65
2022-12-23T02:24:25.039Z,2.22
2022-12-23T02:27:17.940Z,2.47
2022-12-23T02:30:10.877Z,2.50
2022-12-23T02:33:05.663Z,2.65
2022-12-23T02:35:46.109Z,3.25
2022-12-23T02:38:22.490Z,2.47
2022-12-23T02:41:01.691Z,2.33
2022-12-23T02:43:38.681Z,2.22
2022-12-23T02:46:12.631Z,2.78
2022-12-23T02:48:50.062Z,2.97
2022-12-23T02:51:21.354Z,2.40
2022-12-23T02:53:55.283Z,2.83
2022-12-23T02:56:28.321Z,2.78
2022-12-23T02:59:07.064Z,2.63
2022-12-23T03:01:38.620Z,3.08
2022-12-23T03:04:11.640Z,3.10
2022-12-23T03:06:44.111Z,3.03
2022-12-23T03:09:20.177Z,3.53
2022-12-23T03:11:59.002Z,3.22
2022-12-23T03:14:45.491Z,3.17
2022-12-23T03:17:41.180Z,4.22
2022-12-23T03:20:21.682Z,3.50
2022-12-23T03:22:57.623Z,3.13
2022-12-23T03:25:34.292Z,3.00
2022-12-23T03:28:10.563Z,3.03
2022-12-23T03:30:43.457Z,3.50
2022-12-23T03:33:18.169Z,2.85
2022-12-23T03:35:55.599Z,2.15
2022-12-23T03:38:26.768Z,2.85
2022-12-23T03:40:59.415Z,2.05
2022-12-23T03:43:33.333Z,2.30
2022-12-23T03:46:09.342Z,2.55
2022-12-23T03:48:42.652Z,3.20
2022-12-23T03:51:19.090Z,2.08
2022-12-23T03:53:54.364Z,2.53
2022-12-23T03:56:31.095Z,2.42
2022-12-23T03:59:04.275Z,2.53
2022-12-23T04:01:58.116Z,2.75
2022-12-23T04:04:31.500Z,2.42
2022-12-23T04:07:09.080Z,2.00
2022-12-23T04:09:39.730Z,2.78
2022-12-23T04:12:10.716Z,2.30
2022-12-23T04:14:46.883Z,2.78
2022-12-23T04:17:17.630Z,2.60
2022-12-23T04:19:48.806Z,3.42
2022-12-23T04:22:22.408Z,2.55
2022-12-23T04:24:52.429Z,3.15
2022-12-23T04:27:22.763Z,3.10
2022-12-23T04:29:52.983Z,3.47
2022-12-23T04:32:23.228Z,3.53
2022-12-23T04:34:53.478Z,3.13
2022-12-23T04:37:26.105Z,3.78
2022-12-23T04:39:56.315Z,3.90
2022-12-23T04:42:26.670Z,4.32
2022-12-23T04:44:56.948Z,4.70
2022-12-23T04:47:27.613Z,4.18
2022-12-23T04:49:57.945Z,5.00
2022-12-23T04:52:30.770Z,4.25
2022-12-23T04:55:01.088Z,5.68
2022-12-23T04:57:31.414Z,5.80
2022-12-23T05:00:01.709Z,5.45
2022-12-23T05:02:32.070Z,6.72
2022-12-23T05:05:02.434Z,6.03
2022-12-23T05:07:35.001Z,5.55
2022-12-23T05:10:05.285Z,5.22
2022-12-23T05:12:35.683Z,5.82
2022-12-23T05:15:05.685Z,5.22
2022-12-23T05:17:35.969Z,5.72
2022-12-23T05:20:06.249Z,5.78
2022-12-23T05:22:39.062Z,5.63
2022-12-23T05:25:10.575Z,6.47
2022-12-23T05:27:40.891Z,5.53
2022-12-23T05:30:12.466Z,5.43
2022-12-23T05:32:42.756Z,5.30
2022-12-23T05:35:13.385Z,5.53
2022-12-23T05:37:45.983Z,5.03
2022-12-23T05:40:21.539Z,5.00
2022-12-23T05:42:53.840Z,4.88
2022-12-23T05:45:24.062Z,5.00
2022-12-23T05:47:54.331Z,5.15
2022-12-23T05:50:24.617Z,4.88
2022-12-23T05:52:57.899Z,5.47
2022-12-23T05:55:28.335Z,5.85
2022-12-23T05:57:58.585Z,5.40
2022-12-23T06:00:29.308Z,6.25
2022-12-23T06:02:59.768Z,6.40
2022-12-23T06:05:30.162Z,6.22
2022-12-23T06:08:02.721Z,6.75
2022-12-23T06:10:32.998Z,7.20
2022-12-23T06:13:03.322Z,7.07
2022-12-23T06:15:33.609Z,6.72
2022-12-23T06:18:03.973Z,6.10
2022-12-23T06:20:37.007Z,6.53
2022-12-23T06:23:09.591Z,5.43
2022-12-23T06:25:39.817Z,5.60
2022-12-23T06:28:10.438Z,4.72
2022-12-23T06:30:40.752Z,4.53
2022-12-23T06:33:11.085Z,5.30
2022-12-23T06:35:41.386Z,5.00
2022-12-23T06:38:14.410Z,4.03
2022-12-23T06:40:44.722Z,4.13
2022-12-23T06:43:15.035Z,4.43
2022-12-23T06:45:49.735Z,3.60
2022-12-23T06:48:20.410Z,2.85
2022-12-23T06:50:50.652Z,2.80
2022-12-23T06:53:23.261Z,2.58
2022-12-23T06:55:53.526Z,2.78
2022-12-23T06:58:23.825Z,2.20
2022-12-23T07:00:54.147Z,2.58
2022-12-23T07:03:24.929Z,2.90
2022-12-23T07:05:55.364Z,2.15
2022-12-23T07:08:27.910Z,2.85
2022-12-23T07:11:01.245Z,1.98
2022-12-23T07:13:31.534Z,2.10
2022-12-23T07:16:01.772Z,1.95
2022-12-23T07:18:32.010Z,1.63
2022-12-23T07:21:03.754Z,1.95
2022-12-23T07:23:36.358Z,1.50
2022-12-23T07:26:06.632Z,2.03
2022-12-23T07:28:36.988Z,1.67
2022-12-23T07:31:08.476Z,1.50
2022-12-23T07:33:38.794Z,2.25
2022-12-23T07:36:09.480Z,2.15
2022-12-23T07:38:42.062Z,1.75
2022-12-23T07:41:12.291Z,1.55
2022-12-23T07:43:42.519Z,21.38
2022-12-23T07:46:13.051Z,2.63
2022-12-23T07:48:43.936Z,2.25
2022-12-23T07:51:14.296Z,1.70
2022-12-23T07:53:46.905Z,1.40
2022-12-23T07:56:17.181Z,0.98
2022-12-23T07:58:47.666Z,1.08
2022-12-23T08:01:20.403Z,0.90
2022-12-23T08:03:51.087Z,1.00
2022-12-23T08:06:21.158Z,1.42
2022-12-23T08:08:53.722Z,6.97
2022-12-23T08:11:24.568Z,2.88
2022-12-23T08:13:55.399Z,5.70
2022-12-23T08:16:25.675Z,3.22
2022-12-23T08:18:55.950Z,5.45
2022-12-23T08:21:26.239Z,3.65
2022-12-23T08:23:58.822Z,4.35
2022-12-23T08:26:29.172Z,2.97
2022-12-23T08:28:59.493Z,3.28
2022-12-23T08:31:32.045Z,3.97
2022-12-23T08:34:03.925Z,3.10
2022-12-23T08:36:36.144Z,2.35
2022-12-23T08:39:11.358Z,2.63
2022-12-23T08:41:44.571Z,5.18
2022-12-23T08:44:15.158Z,2.63
2022-12-23T08:46:48.287Z,2.90
2022-12-23T08:49:18.629Z,1.65
2022-12-23T08:51:48.889Z,2.10
2022-12-23T08:54:22.294Z,2.45
2022-12-23T08:56:52.457Z,1.50
2022-12-23T08:59:22.740Z,1.13
2022-12-23T09:01:53.121Z,1.02
2022-12-23T09:04:23.510Z,1.30
2022-12-23T09:06:53.825Z,0.90
2022-12-23T09:09:26.690Z,0.90
2022-12-23T09:11:56.975Z,1.60
2022-12-23T09:14:27.239Z,0.90
2022-12-23T09:16:57.481Z,1.08
2022-12-23T09:19:27.755Z,1.05
2022-12-23T09:21:58.040Z,0.90
2022-12-23T09:24:31.371Z,1.10
2022-12-23T09:27:01.652Z,1.03
2022-12-23T09:29:31.975Z,1.13
2022-12-23T09:32:02.182Z,1.08
2022-12-23T09:34:32.432Z,2.15
2022-12-23T09:37:02.633Z,2.55
2022-12-23T09:39:35.466Z,2.28
2022-12-23T09:42:08.705Z,1.25
2022-12-23T09:44:43.290Z,1.98
2022-12-23T09:47:15.677Z,1.48
2022-12-23T09:49:50.366Z,2.70
2022-12-23T09:52:27.564Z,1.70
2022-12-23T09:55:00.827Z,1.95
2022-12-23T09:57:38.575Z,1.90
2022-12-23T10:00:16.552Z,2.15
2022-12-23T10:02:58.215Z,1.38
2022-12-23T10:05:37.819Z,1.58
2022-12-23T10:08:15.437Z,1.83
2022-12-23T10:10:52.538Z,1.38
2022-12-23T10:13:29.728Z,1.77
2022-12-23T10:16:03.854Z,1.77
2022-12-23T10:18:46.572Z,1.42
2022-12-23T10:21:21.899Z,1.63
2022-12-23T10:23:55.236Z,3.75
2022-12-23T10:26:32.417Z,4.13
2022-12-23T10:29:16.833Z,2.08
2022-12-23T10:32:03.995Z,2.53
2022-12-23T10:34:44.682Z,2.95
2022-12-23T10:37:24.987Z,2.42
2022-12-23T10:40:06.379Z,3.38
2022-12-23T10:42:44.446Z,2.80
2022-12-23T10:45:42.870Z,2.95
2022-12-23T10:48:25.667Z,3.42
2022-12-23T10:51:02.817Z,4.88
2022-12-23T10:53:38.089Z,3.50
2022-12-23T10:56:09.585Z,4.35
2022-12-23T10:58:46.084Z,4.25
2022-12-23T11:01:26.076Z,3.70
2022-12-23T11:04:04.679Z,3.95
2022-12-23T11:06:38.037Z,4.18
2022-12-23T11:09:09.805Z,5.13
2022-12-23T11:11:59.411Z,4.70
2022-12-23T11:14:37.878Z,7.30
2022-12-23T11:17:16.052Z,6.78
2022-12-23T11:19:46.373Z,6.35
2022-12-23T11:22:25.528Z,7.65
2022-12-23T11:24:55.663Z,18.13
2022-12-23T11:27:25.933Z,14.27
2022-12-23T11:29:58.559Z,14.15
2022-12-23T11:32:31.150Z,7.57
2022-12-23T11:35:01.565Z,8.63
2022-12-23T11:37:39.179Z,6.15
2022-12-23T11:40:27.163Z,6.70
2022-12-23T11:43:02.164Z,6.32
2022-12-23T11:45:38.164Z,7.32
2022-12-23T11:48:09.990Z,6.30
2022-12-23T11:50:42.248Z,5.85
2022-12-23T11:53:16.487Z,6.03
2022-12-23T11:55:58.847Z,7.75
2022-12-23T11:58:29.452Z,7.40
2022-12-23T12:01:09.571Z,6.47
2022-12-23T12:03:49.979Z,7.38
2022-12-23T12:06:21.448Z,8.38
2022-12-23T12:08:53.477Z,6.55
2022-12-23T12:11:28.267Z,7.63
2022-12-23T12:14:02.339Z,7.18
2022-12-23T12:16:52.605Z,7.22
2022-12-23T12:19:27.204Z,7.13
2022-12-23T12:22:03.586Z,8.00
2022-12-23T12:24:39.430Z,8.93
2022-12-23T12:27:11.167Z,8.40
2022-12-23T12:29:47.725Z,7.30
2022-12-23T12:32:38.190Z,7.40
2022-12-23T12:35:11.559Z,7.10
2022-12-23T12:37:45.762Z,6.93
2022-12-23T12:40:23.944Z,7.35
2022-12-23T12:43:02.571Z,8.02
2022-12-23T12:45:41.624Z,8.15
2022-12-23T12:48:29.676Z,6.80
2022-12-23T12:51:06.182Z,8.95
2022-12-23T12:53:39.786Z,7.72
2022-12-23T12:56:18.195Z,9.07
2022-12-23T12:58:48.485Z,7.85
2022-12-23T13:01:31.292Z,9.23
2022-12-23T13:04:55.341Z,8.80
2022-12-23T13:07:37.463Z,8.18
2022-12-23T13:10:18.937Z,7.40
2022-12-23T13:13:00.548Z,8.00
2022-12-23T13:15:36.981Z,8.57
2022-12-23T13:18:26.976Z,4.95
2022-12-23T13:21:04.412Z,3.03
2022-12-23T13:23:45.444Z,3.72
2022-12-23T13:26:28.440Z,5.78
2022-12-23T13:29:07.857Z,5.90
2022-12-23T13:31:47.096Z,7.13
2022-12-23T13:34:32.312Z,6.55
2022-12-23T13:37:13.425Z,5.63
2022-12-23T13:39:59.691Z,4.75
2022-12-23T13:42:33.889Z,4.90
2022-12-23T13:45:07.039Z,5.82
2022-12-23T13:47:49.011Z,5.43
2022-12-23T13:50:25.589Z,7.60
2022-12-23T13:53:16.551Z,7.80
2022-12-23T13:56:13.835Z,7.72
2022-12-23T13:58:44.439Z,8.55
2022-12-23T14:01:35.268Z,7.10
2022-12-23T14:04:34.525Z,7.30
2022-12-23T14:07:07.833Z,5.22
2022-12-23T14:09:40.888Z,6.73
2022-12-23T14:12:22.189Z,5.70
2022-12-23T14:15:19.006Z,5.65
2022-12-23T14:18:02.733Z,5.85
2022-12-23T14:20:47.157Z,5.70
2022-12-23T14:23:33.962Z,5.43
2022-12-23T14:26:25.498Z,5.40
2022-12-23T14:29:13.581Z,6.00
2022-12-23T14:31:45.660Z,4.82
2022-12-23T14:34:31.262Z,4.40
2022-12-23T14:37:31.285Z,5.85
2022-12-23T14:40:21.373Z,4.72
2022-12-23T14:42:51.454Z,4.10
2022-12-23T14:45:47.450Z,5.00
2022-12-23T14:48:47.878Z,4.70
2022-12-23T14:51:26.644Z,4.18
2022-12-23T14:54:15.570Z,5.57
2022-12-23T14:57:03.241Z,4.50
2022-12-23T14:59:41.243Z,3.38
2022-12-23T15:02:24.740Z,4.35
2022-12-23T15:04:58.811Z,4.63
2022-12-23T15:07:33.536Z,4.15
2022-12-23T15:10:06.735Z,3.83
2022-12-23T15:12:39.874Z,3.50
2022-12-23T15:15:16.589Z,3.67
2022-12-23T15:17:49.497Z,6.97
2022-12-23T15:20:23.071Z,5.45
2022-12-23T15:22:53.726Z,6.80
2022-12-23T15:25:26.325Z,7.85
2022-12-23T15:28:01.779Z,5.47
2022-12-23T15:30:38.080Z,6.50
2022-12-23T15:33:43.274Z,7.80
2022-12-23T15:36:05.154Z,4.75
2022-12-23T15:38:40.113Z,4.82
2022-12-23T15:41:18.745Z,4.00
2022-12-23T15:43:49.160Z,4.40
2022-12-23T15:46:26.847Z,4.72
2022-12-23T15:49:02.205Z,5.10
2022-12-23T15:52:07.062Z,5.60
2022-12-23T15:54:30.292Z,6.05
2022-12-23T15:57:02.255Z,6.70
2022-12-23T15:59:35.852Z,8.25
2022-12-23T16:02:40.293Z,3.53
2022-12-23T16:05:06.783Z,7.47
2022-12-23T16:07:40.547Z,5.90
2022-12-23T16:10:17.734Z,4.80
2022-12-23T16:12:48.176Z,3.88
2022-12-23T16:15:29.581Z,2.25
2022-12-23T16:18:14.955Z,2.50
2022-12-23T16:20:48.796Z,2.78
2022-12-23T16:23:19.933Z,2.88
2022-12-23T16:25:51.071Z,3.33
2022-12-23T16:28:24.561Z,3.25
2022-12-23T16:30:56.464Z,2.50
2022-12-23T16:33:36.699Z,2.88
2022-12-23T16:36:25.879Z,4.57
2022-12-23T16:38:59.949Z,3.58
2022-12-23T16:41:30.240Z,2.85
2022-12-23T16:44:00.738Z,6.65
2022-12-23T16:46:31.322Z,4.47
2022-12-23T16:49:04.904Z,8.73
2022-12-23T16:51:38.988Z,3.50
2022-12-23T16:54:09.370Z,4.15
2022-12-23T16:56:41.356Z,6.65
2022-12-23T16:59:11.609Z,6.05
2022-12-23T17:01:43.257Z,4.20
2022-12-23T17:04:13.748Z,4.70
2022-12-23T17:06:46.761Z,4.63
2022-12-23T17:09:17.153Z,5.53
2022-12-23T17:11:49.093Z,12.23
2022-12-23T17:14:21.290Z,8.18
2022-12-23T17:16:52.214Z,13.38
2022-12-23T17:19:29.055Z,9.25
2022-12-23T17:22:05.925Z,6.32
2022-12-23T17:24:36.251Z,6.70
2022-12-23T17:27:12.683Z,7.60
2022-12-23T17:29:42.895Z,5.95
2022-12-23T17:32:15.168Z,9.50
2022-12-23T17:34:45.345Z,5.82
2022-12-23T17:37:20.805Z,10.25
2022-12-23T17:39:51.068Z,16.13
2022-12-23T17:42:25.888Z,8.13
2022-12-23T17:44:56.460Z,19.80
2022-12-23T17:47:26.741Z,5.45
2022-12-23T17:49:56.979Z,4.53
2022-12-23T17:52:29.625Z,8.82
2022-12-23T17:54:59.846Z,4.97
2022-12-23T17:57:30.711Z,3.35
2022-12-23T18:00:00.985Z,7.30
2022-12-23T18:02:33.159Z,5.35
2022-12-23T18:05:03.497Z,3.72
2022-12-23T18:07:36.113Z,3.63
2022-12-23T18:10:06.609Z,5.90
2022-12-23T18:12:38.735Z,4.00
2022-12-23T18:15:10.076Z,3.05
2022-12-23T18:17:40.339Z,4.38
2022-12-23T18:20:18.147Z,10.63
2022-12-23T18:22:52.954Z,5.18
2022-12-23T18:25:25.286Z,8.38
2022-12-23T18:27:56.501Z,6.28
2022-12-23T18:30:26.972Z,2.25
2022-12-23T18:32:57.360Z,1.70
2022-12-23T18:35:30.688Z,1.75
2022-12-23T18:38:03.858Z,2.40
2022-12-23T18:40:34.178Z,2.55
2022-12-23T18:43:04.466Z,1.83
2022-12-23T18:45:37.812Z,9.45
2022-12-23T18:48:09.847Z,1.77
2022-12-23T18:50:41.511Z,1.42
2022-12-23T18:53:23.654Z,2.08
2022-12-23T18:55:54.812Z,2.15
2022-12-23T18:58:25.701Z,1.50
2022-12-23T19:01:03.571Z,1.30
2022-12-23T19:03:35.077Z,1.38
2022-12-23T19:06:09.348Z,1.20
2022-12-23T19:11:15.951Z,1.35
2022-12-23T19:13:46.065Z,1.00
2022-12-23T19:16:16.501Z,1.10
2022-12-23T19:18:47.458Z,0.57
2022-12-23T19:21:18.098Z,0.95
2022-12-23T19:23:50.613Z,0.90
2022-12-23T19:26:20.635Z,1.25
2022-12-23T19:28:50.944Z,1.15
2022-12-23T19:31:23.107Z,0.98
2022-12-23T19:33:53.196Z,0.75
2022-12-23T19:36:25.458Z,0.43
2022-12-23T19:38:59.383Z,0.98
2022-12-23T19:41:29.385Z,0.80
2022-12-23T19:43:59.412Z,0.60
2022-12-23T19:46:29.511Z,0.60
2022-12-23T19:48:59.476Z,0.20
2022-12-23T19:51:29.534Z,0.50
2022-12-23T19:54:02.099Z,0.32
2022-12-23T19:56:32.560Z,0.57
2022-12-23T19:59:02.503Z,0.63
2022-12-23T20:01:32.632Z,0.50
2022-12-23T20:04:02.717Z,0.40
2022-12-23T20:06:35.284Z,0.22
2022-12-23T20:09:08.738Z,0.50
2022-12-23T20:11:41.471Z,0.80
2022-12-23T20:14:12.404Z,0.75
2022-12-23T20:16:44.109Z,1.00
2022-12-23T20:19:14.639Z,0.82
2022-12-23T20:21:45.499Z,0.45
2022-12-23T20:24:18.993Z,0.90
2022-12-23T20:26:48.951Z,0.77
2022-12-23T20:29:18.954Z,0.60
2022-12-23T20:31:49.012Z,0.63
2022-12-23T20:34:20.133Z,1.33
2022-12-23T20:36:50.184Z,0.98
2022-12-23T20:39:22.762Z,0.70
2022-12-23T20:41:52.827Z,0.75
2022-12-23T20:44:38.193Z,0.60
2022-12-23T20:47:09.112Z,0.82
2022-12-23T20:49:39.058Z,1.00
2022-12-23T20:52:09.077Z,0.70
2022-12-23T20:54:41.603Z,0.57
2022-12-23T20:57:11.600Z,0.75
2022-12-23T20:59:41.576Z,0.68
2022-12-23T21:02:14.786Z,1.00
2022-12-23T21:04:45.324Z,0.68
2022-12-23T21:07:15.355Z,1.27
2022-12-23T21:09:48.026Z,1.00
2022-12-23T21:12:18.172Z,0.88
2022-12-23T21:14:48.135Z,1.17
2022-12-23T21:17:18.095Z,0.90
2022-12-23T21:19:48.084Z,0.77
2022-12-23T21:22:18.124Z,0.93
2022-12-23T21:24:50.634Z,0.60
2022-12-23T21:27:20.617Z,0.70
2022-12-23T21:29:50.521Z,0.45
2022-12-23T21:32:20.462Z,0.40
2022-12-23T21:34:50.462Z,0.52
2022-12-23T21:37:20.435Z,0.65
2022-12-23T21:39:52.966Z,0.68
2022-12-23T21:42:22.893Z,0.43
2022-12-23T21:44:52.815Z,0.50
2022-12-23T21:47:22.753Z,0.50
2022-12-23T21:49:52.711Z,0.38
2022-12-23T21:52:22.662Z,0.25
2022-12-23T21:54:55.171Z,0.70
2022-12-23T21:57:25.204Z,0.35
2022-12-23T21:59:55.364Z,0.22
2022-12-23T22:02:25.419Z,0.73
2022-12-23T22:04:55.375Z,0.68
2022-12-23T22:07:25.279Z,0.30
2022-12-23T22:09:57.778Z,0.35
2022-12-23T22:12:27.844Z,0.30
2022-12-23T22:14:57.889Z,0.28
2022-12-23T22:17:28.214Z,0.10
2022-12-23T22:19:58.488Z,0.20
2022-12-23T22:22:28.526Z,0.20
2022-12-23T22:25:01.125Z,0.20
2022-12-23T22:27:31.394Z,0.17
2022-12-23T22:30:01.743Z,0.10
2022-12-23T22:32:32.042Z,0.28
2022-12-23T22:35:02.336Z,0.43
2022-12-23T22:37:32.579Z,0.40
2022-12-23T22:40:05.212Z,0.35
2022-12-23T22:42:36.208Z,0.30
2022-12-23T22:45:06.641Z,0.30
2022-12-23T22:47:36.869Z,0.10
2022-12-23T22:50:07.443Z,0.25
2022-12-23T22:52:37.691Z,0.40
2022-12-23T22:55:11.662Z,0.40
2022-12-23T22:57:41.921Z,0.20
2022-12-23T23:00:14.444Z,0.80
2022-12-23T23:02:44.713Z,0.22
2022-12-23T23:05:14.866Z,0.40
2022-12-23T23:07:45.192Z,0.35
2022-12-23T23:10:17.866Z,0.60
2022-12-23T23:12:48.287Z,0.47
2022-12-23T23:15:20.450Z,0.40
2022-12-23T23:17:50.732Z,0.30
2022-12-23T23:20:21.028Z,0.70
2022-12-23T23:22:52.086Z,0.47
2022-12-23T23:25:25.066Z,0.52
2022-12-23T23:27:55.327Z,0.40
2022-12-23T23:30:25.333Z,0.40
2022-12-23T23:32:55.614Z,0.40
2022-12-23T23:35:25.893Z,0.80
2022-12-23T23:37:55.823Z,0.65
2022-12-23T23:40:28.400Z,0.60
2022-12-23T23:42:58.641Z,0.50
2022-12-23T23:45:30.251Z,0.52
2022-12-23T23:48:00.326Z,0.17
2022-12-23T23:50:30.318Z,0.38
2022-12-23T23:53:00.547Z,0.70
2022-12-23T23:55:33.456Z,0.63
2022-12-23T23:58:03.704Z,0.68
